sensor_id;sensor_type;location;lat;lon;timestamp;P1;durP1;ratioP1;P2;durP2;ratioP2
1358;SDS011;673;48.098;14.422;2024-03-06T00:02:19;1999.90;;;999.90;;
1358;SDS011;673;48.098;14.422;2024-03-06T00:04:46;1999.90;;;999.90;;
1358;SDS011;673;48.098;14.422;2024-03-06T00:07:13;1999.90;;;999.90;;
1358;SDS011;673;48.098;14.422;2024-03-06T00:09:41;1999.90;;;999.90;;
1358;SDS011;673;48.098;14.422;2024-03-06T00:12:09;1999.90;;;999.90;;
1358;SDS011;673;48.098;14.422;2024-03-06T00:14:36;1999.90;;;999.90;;
1358;SDS011;673;48.098;14.422;2024-03-06T00:17:03;1999.90;;;999.90;;
1358;SDS011;673;48.098;14.422;2024-03-06T00:19:32;1999.90;;;999.90;;
1358;SDS011;673;48.098;14.422;2024-03-06T00:21:59;1999.90;;;999.90;;
1358;SDS011;673;48.098;14.422;2024-03-06T00:24:27;1999.90;;;999.90;;
1358;SDS011;673;48.098;14.422;2024-03-06T00:26:56;1999.90;;;999.90;;
1358;SDS011;673;48.098;14.422;2024-03-06T00:29:23;1999.90;;;999.90;;
1358;SDS011;673;48.098;14.422;2024-03-06T00:31:50;1999.90;;;999.90;;
1358;SDS011;673;48.098;14.422;2024-03-06T00:34:17;1999.90;;;999.90;;
1358;SDS011;673;48.098;14.422;2024-03-06T00:36:44;1999.90;;;999.90;;
1358;SDS011;673;48.098;14.422;2024-03-06T00:39:11;1999.90;;;999.90;;
1358;SDS011;673;48.098;14.422;2024-03-06T00:41:39;1999.90;;;999.90;;
1358;SDS011;673;48.098;14.422;2024-03-06T00:44:08;1999.90;;;999.90;;
1358;SDS011;673;48.098;14.422;2024-03-06T00:46:35;1999.90;;;999.90;;
1358;SDS011;673;48.098;14.422;2024-03-06T00:49:02;1999.90;;;999.90;;
1358;SDS011;673;48.098;14.422;2024-03-06T00:51:29;1999.90;;;999.90;;
1358;SDS011;673;48.098;14.422;2024-03-06T00:53:56;1999.90;;;999.90;;
1358;SDS011;673;48.098;14.422;2024-03-06T00:56:23;1999.90;;;999.90;;
1358;SDS011;673;48.098;14.422;2024-03-06T00:58:50;1999.90;;;999.90;;
1358;SDS011;673;48.098;14.422;2024-03-06T01:01:19;1999.90;;;999.90;;
1358;SDS011;673;48.098;14.422;2024-03-06T01:03:46;1999.90;;;999.90;;
1358;SDS011;673;48.098;14.422;2024-03-06T01:06:13;1999.90;;;999.90;;
1358;SDS011;673;48.098;14.422;2024-03-06T01:08:40;1999.90;;;999.90;;
1358;SDS011;673;48.098;14.422;2024-03-06T01:11:07;1999.90;;;999.90;;
1358;SDS011;673;48.098;14.422;2024-03-06T01:13:35;1999.90;;;999.90;;
1358;SDS011;673;48.098;14.422;2024-03-06T01:16:02;1999.90;;;999.90;;
1358;SDS011;673;48.098;14.422;2024-03-06T01:18:31;1999.90;;;999.90;;
1358;SDS011;673;48.098;14.422;2024-03-06T01:20:59;1999.90;;;999.90;;
1358;SDS011;673;48.098;14.422;2024-03-06T01:23:26;1999.90;;;999.90;;
1358;SDS011;673;48.098;14.422;2024-03-06T01:25:53;1999.90;;;999.90;;
1358;SDS011;673;48.098;14.422;2024-03-06T01:28:19;1999.90;;;999.90;;
1358;SDS011;673;48.098;14.422;2024-03-06T01:30:46;1999.90;;;999.90;;
1358;SDS011;673;48.098;14.422;2024-03-06T01:33:13;1999.90;;;999.90;;
1358;SDS011;673;48.098;14.422;2024-03-06T01:35:42;1999.90;;;999.90;;
1358;SDS011;673;48.098;14.422;2024-03-06T01:38:09;1999.90;;;999.90;;
1358;SDS011;673;48.098;14.422;2024-03-06T01:40:36;1999.90;;;999.90;;
1358;SDS011;673;48.098;14.422;2024-03-06T01:43:03;1999.90;;;999.90;;
1358;SDS011;673;48.098;14.422;2024-03-06T01:45:30;1999.90;;;999.90;;
1358;SDS011;673;48.098;14.422;2024-03-06T01:47:57;1999.90;;;999.90;;
1358;SDS011;673;48.098;14.422;2024-03-06T01:50:24;1999.90;;;999.90;;
1358;SDS011;673;48.098;14.422;2024-03-06T01:52:53;1999.90;;;999.90;;
1358;SDS011;673;48.098;14.422;2024-03-06T01:55:20;1999.90;;;999.90;;
1358;SDS011;673;48.098;14.422;2024-03-06T01:57:47;1999.90;;;999.90;;
1358;SDS011;673;48.098;14.422;2024-03-06T02:00:14;1999.90;;;999.90;;
1358;SDS011;673;48.098;14.422;2024-03-06T02:02:42;1999.90;;;999.90;;
1358;SDS011;673;48.098;14.422;2024-03-06T02:05:09;1999.90;;;999.90;;
1358;SDS011;673;48.098;14.422;2024-03-06T02:07:37;1999.90;;;999.90;;
1358;SDS011;673;48.098;14.422;2024-03-06T02:10:08;1999.90;;;999.90;;
1358;SDS011;673;48.098;14.422;2024-03-06T02:12:37;1999.90;;;999.90;;
1358;SDS011;673;48.098;14.422;2024-03-06T02:15:05;1999.90;;;999.90;;
1358;SDS011;673;48.098;14.422;2024-03-06T02:17:33;1999.90;;;999.90;;
1358;SDS011;673;48.098;14.422;2024-03-06T02:20:01;1999.90;;;999.90;;
1358;SDS011;673;48.098;14.422;2024-03-06T02:22:32;1999.90;;;999.90;;
1358;SDS011;673;48.098;14.422;2024-03-06T02:24:59;1999.90;;;999.90;;
1358;SDS011;673;48.098;14.422;2024-03-06T02:27:26;1999.90;;;999.90;;
1358;SDS011;673;48.098;14.422;2024-03-06T02:29:53;1999.90;;;999.90;;
1358;SDS011;673;48.098;14.422;2024-03-06T02:32:20;1999.90;;;999.90;;
1358;SDS011;673;48.098;14.422;2024-03-06T02:34:49;1999.90;;;999.90;;
1358;SDS011;673;48.098;14.422;2024-03-06T02:37:16;1999.90;;;999.90;;
1358;SDS011;673;48.098;14.422;2024-03-06T02:39:45;1999.90;;;999.90;;
1358;SDS011;673;48.098;14.422;2024-03-06T02:42:12;1999.90;;;999.90;;
1358;SDS011;673;48.098;14.422;2024-03-06T02:44:39;1999.90;;;999.90;;
1358;SDS011;673;48.098;14.422;2024-03-06T02:47:06;1999.90;;;999.90;;
1358;SDS011;673;48.098;14.422;2024-03-06T02:49:33;1999.90;;;999.90;;
1358;SDS011;673;48.098;14.422;2024-03-06T02:52:00;1999.90;;;999.90;;
1358;SDS011;673;48.098;14.422;2024-03-06T02:54:27;1999.90;;;999.90;;
1358;SDS011;673;48.098;14.422;2024-03-06T02:56:55;1999.90;;;999.90;;
1358;SDS011;673;48.098;14.422;2024-03-06T02:59:22;1999.90;;;999.90;;
1358;SDS011;673;48.098;14.422;2024-03-06T03:01:50;1999.90;;;999.90;;
1358;SDS011;673;48.098;14.422;2024-03-06T03:04:17;1999.90;;;999.90;;
1358;SDS011;673;48.098;14.422;2024-03-06T03:06:44;1999.90;;;999.90;;
1358;SDS011;673;48.098;14.422;2024-03-06T03:09:11;1999.90;;;999.90;;
1358;SDS011;673;48.098;14.422;2024-03-06T03:11:41;1999.90;;;999.90;;
1358;SDS011;673;48.098;14.422;2024-03-06T03:14:10;1999.90;;;999.90;;
1358;SDS011;673;48.098;14.422;2024-03-06T03:16:37;1999.90;;;999.90;;
1358;SDS011;673;48.098;14.422;2024-03-06T03:19:04;1999.90;;;999.90;;
1358;SDS011;673;48.098;14.422;2024-03-06T03:21:33;1999.90;;;999.90;;
1358;SDS011;673;48.098;14.422;2024-03-06T03:24:00;1999.90;;;999.90;;
1358;SDS011;673;48.098;14.422;2024-03-06T03:26:28;1999.90;;;999.90;;
1358;SDS011;673;48.098;14.422;2024-03-06T03:28:55;1999.90;;;999.90;;
1358;SDS011;673;48.098;14.422;2024-03-06T03:31:24;1999.90;;;999.90;;
1358;SDS011;673;48.098;14.422;2024-03-06T03:33:51;1999.90;;;999.90;;
1358;SDS011;673;48.098;14.422;2024-03-06T03:36:17;1999.90;;;999.90;;
1358;SDS011;673;48.098;14.422;2024-03-06T03:38:44;1999.90;;;999.90;;
1358;SDS011;673;48.098;14.422;2024-03-06T03:41:12;1999.90;;;999.90;;
1358;SDS011;673;48.098;14.422;2024-03-06T03:43:41;1999.90;;;999.90;;
1358;SDS011;673;48.098;14.422;2024-03-06T03:46:08;1999.90;;;999.90;;
1358;SDS011;673;48.098;14.422;2024-03-06T03:48:37;1999.90;;;999.90;;
1358;SDS011;673;48.098;14.422;2024-03-06T03:51:04;1999.90;;;999.90;;
1358;SDS011;673;48.098;14.422;2024-03-06T03:53:32;1999.90;;;999.90;;
1358;SDS011;673;48.098;14.422;2024-03-06T03:55:59;1999.90;;;999.90;;
1358;SDS011;673;48.098;14.422;2024-03-06T03:58:26;1999.90;;;999.90;;
1358;SDS011;673;48.098;14.422;2024-03-06T04:00:53;1999.90;;;999.90;;
1358;SDS011;673;48.098;14.422;2024-03-06T04:03:20;1999.90;;;999.90;;
1358;SDS011;673;48.098;14.422;2024-03-06T04:05:49;1999.90;;;999.90;;
1358;SDS011;673;48.098;14.422;2024-03-06T04:08:17;1999.90;;;999.90;;
1358;SDS011;673;48.098;14.422;2024-03-06T04:10:44;1999.90;;;999.90;;
1358;SDS011;673;48.098;14.422;2024-03-06T04:13:12;1999.90;;;999.90;;
1358;SDS011;673;48.098;14.422;2024-03-06T04:15:39;1999.90;;;999.90;;
1358;SDS011;673;48.098;14.422;2024-03-06T04:18:06;1999.90;;;999.90;;
1358;SDS011;673;48.098;14.422;2024-03-06T04:20:33;1999.90;;;999.90;;
1358;SDS011;673;48.098;14.422;2024-03-06T04:23:01;1999.90;;;999.90;;
1358;SDS011;673;48.098;14.422;2024-03-06T04:25:28;1999.90;;;999.90;;
1358;SDS011;673;48.098;14.422;2024-03-06T04:27:55;1999.90;;;999.90;;
1358;SDS011;673;48.098;14.422;2024-03-06T04:30:22;1999.90;;;999.90;;
1358;SDS011;673;48.098;14.422;2024-03-06T04:32:50;1999.90;;;999.90;;
1358;SDS011;673;48.098;14.422;2024-03-06T04:35:17;1999.90;;;999.90;;
1358;SDS011;673;48.098;14.422;2024-03-06T04:37:44;1999.90;;;999.90;;
1358;SDS011;673;48.098;14.422;2024-03-06T04:40:12;1999.90;;;999.90;;
1358;SDS011;673;48.098;14.422;2024-03-06T04:42:42;1999.90;;;999.90;;
1358;SDS011;673;48.098;14.422;2024-03-06T04:45:14;1999.90;;;999.90;;
1358;SDS011;673;48.098;14.422;2024-03-06T04:47:42;1999.90;;;999.90;;
1358;SDS011;673;48.098;14.422;2024-03-06T04:50:09;1999.90;;;999.90;;
1358;SDS011;673;48.098;14.422;2024-03-06T04:52:37;1999.90;;;999.90;;
1358;SDS011;673;48.098;14.422;2024-03-06T04:55:04;1999.90;;;999.90;;
1358;SDS011;673;48.098;14.422;2024-03-06T04:57:34;1999.90;;;999.90;;
1358;SDS011;673;48.098;14.422;2024-03-06T05:00:01;1999.90;;;999.90;;
1358;SDS011;673;48.098;14.422;2024-03-06T05:02:30;1999.90;;;999.90;;
1358;SDS011;673;48.098;14.422;2024-03-06T05:04:59;1999.90;;;999.90;;
1358;SDS011;673;48.098;14.422;2024-03-06T05:07:27;1999.90;;;999.90;;
1358;SDS011;673;48.098;14.422;2024-03-06T05:09:54;1999.90;;;999.90;;
1358;SDS011;673;48.098;14.422;2024-03-06T05:12:22;1999.90;;;999.90;;
1358;SDS011;673;48.098;14.422;2024-03-06T05:14:50;1999.90;;;999.90;;
1358;SDS011;673;48.098;14.422;2024-03-06T05:17:18;1999.90;;;999.90;;
1358;SDS011;673;48.098;14.422;2024-03-06T05:19:45;1999.90;;;999.90;;
1358;SDS011;673;48.098;14.422;2024-03-06T05:22:12;1999.90;;;999.90;;
1358;SDS011;673;48.098;14.422;2024-03-06T05:24:40;1999.90;;;999.90;;
1358;SDS011;673;48.098;14.422;2024-03-06T05:27:07;1999.90;;;999.90;;
1358;SDS011;673;48.098;14.422;2024-03-06T05:29:34;1999.90;;;999.90;;
1358;SDS011;673;48.098;14.422;2024-03-06T05:32:04;1999.90;;;999.90;;
1358;SDS011;673;48.098;14.422;2024-03-06T05:34:32;1999.90;;;999.90;;
1358;SDS011;673;48.098;14.422;2024-03-06T05:36:59;1999.90;;;999.90;;
1358;SDS011;673;48.098;14.422;2024-03-06T05:39:28;1999.90;;;999.90;;
1358;SDS011;673;48.098;14.422;2024-03-06T05:41:59;1999.90;;;999.90;;
1358;SDS011;673;48.098;14.422;2024-03-06T05:44:27;1999.90;;;999.90;;
1358;SDS011;673;48.098;14.422;2024-03-06T05:46:55;1999.90;;;999.90;;
1358;SDS011;673;48.098;14.422;2024-03-06T05:49:23;1999.90;;;999.90;;
1358;SDS011;673;48.098;14.422;2024-03-06T05:51:50;1999.90;;;999.90;;
1358;SDS011;673;48.098;14.422;2024-03-06T05:54:20;1999.90;;;999.90;;
1358;SDS011;673;48.098;14.422;2024-03-06T05:56:48;1999.90;;;999.90;;
1358;SDS011;673;48.098;14.422;2024-03-06T05:59:17;1999.90;;;999.90;;
1358;SDS011;673;48.098;14.422;2024-03-06T06:01:45;1999.90;;;999.90;;
1358;SDS011;673;48.098;14.422;2024-03-06T06:04:13;1999.90;;;999.90;;
1358;SDS011;673;48.098;14.422;2024-03-06T06:06:41;1999.90;;;999.90;;
1358;SDS011;673;48.098;14.422;2024-03-06T06:09:08;1999.90;;;999.90;;
1358;SDS011;673;48.098;14.422;2024-03-06T06:11:40;1999.90;;;999.90;;
1358;SDS011;673;48.098;14.422;2024-03-06T06:14:08;1999.90;;;999.90;;
1358;SDS011;673;48.098;14.422;2024-03-06T06:16:35;1999.90;;;999.90;;
1358;SDS011;673;48.098;14.422;2024-03-06T06:19:03;1999.90;;;999.90;;
1358;SDS011;673;48.098;14.422;2024-03-06T06:21:30;1999.90;;;999.90;;
1358;SDS011;673;48.098;14.422;2024-03-06T06:23:59;1999.90;;;999.90;;
1358;SDS011;673;48.098;14.422;2024-03-06T06:26:26;1999.90;;;999.90;;
1358;SDS011;673;48.098;14.422;2024-03-06T06:28:53;1999.90;;;999.90;;
1358;SDS011;673;48.098;14.422;2024-03-06T06:31:20;1999.90;;;999.90;;
1358;SDS011;673;48.098;14.422;2024-03-06T06:33:47;1999.90;;;999.90;;
1358;SDS011;673;48.098;14.422;2024-03-06T06:36:14;1999.90;;;999.90;;
1358;SDS011;673;48.098;14.422;2024-03-06T06:38:41;1999.90;;;999.90;;
1358;SDS011;673;48.098;14.422;2024-03-06T06:41:10;1999.90;;;999.90;;
1358;SDS011;673;48.098;14.422;2024-03-06T06:43:37;1999.90;;;999.90;;
1358;SDS011;673;48.098;14.422;2024-03-06T06:46:04;1999.90;;;999.90;;
1358;SDS011;673;48.098;14.422;2024-03-06T06:48:31;1999.90;;;999.90;;
1358;SDS011;673;48.098;14.422;2024-03-06T06:50:59;1999.90;;;999.90;;
1358;SDS011;673;48.098;14.422;2024-03-06T06:53:27;1999.90;;;999.90;;
1358;SDS011;673;48.098;14.422;2024-03-06T06:55:55;1999.90;;;999.90;;
1358;SDS011;673;48.098;14.422;2024-03-06T06:58:23;1999.90;;;999.90;;
1358;SDS011;673;48.098;14.422;2024-03-06T07:00:52;1999.90;;;999.90;;
1358;SDS011;673;48.098;14.422;2024-03-06T07:03:20;1999.90;;;999.90;;
1358;SDS011;673;48.098;14.422;2024-03-06T07:05:48;1999.90;;;999.90;;
1358;SDS011;673;48.098;14.422;2024-03-06T07:08:15;1999.90;;;999.90;;
1358;SDS011;673;48.098;14.422;2024-03-06T07:10:42;1999.90;;;999.90;;
1358;SDS011;673;48.098;14.422;2024-03-06T07:13:09;1999.90;;;999.90;;
1358;SDS011;673;48.098;14.422;2024-03-06T07:15:37;1999.90;;;999.90;;
1358;SDS011;673;48.098;14.422;2024-03-06T07:18:04;1999.90;;;999.90;;
1358;SDS011;673;48.098;14.422;2024-03-06T07:20:32;1999.90;;;999.90;;
1358;SDS011;673;48.098;14.422;2024-03-06T07:22:59;1999.90;;;999.90;;
1358;SDS011;673;48.098;14.422;2024-03-06T07:25:26;1999.90;;;999.90;;
1358;SDS011;673;48.098;14.422;2024-03-06T07:27:53;1999.90;;;999.90;;
1358;SDS011;673;48.098;14.422;2024-03-06T07:30:20;1999.90;;;999.90;;
1358;SDS011;673;48.098;14.422;2024-03-06T07:32:49;1999.90;;;999.90;;
1358;SDS011;673;48.098;14.422;2024-03-06T07:35:18;1999.90;;;999.90;;
1358;SDS011;673;48.098;14.422;2024-03-06T07:37:45;1999.90;;;999.90;;
1358;SDS011;673;48.098;14.422;2024-03-06T07:40:12;1999.90;;;999.90;;
1358;SDS011;673;48.098;14.422;2024-03-06T07:42:39;1999.90;;;999.90;;
1358;SDS011;673;48.098;14.422;2024-03-06T07:45:06;1999.90;;;999.90;;
1358;SDS011;673;48.098;14.422;2024-03-06T07:47:34;1999.90;;;999.90;;
1358;SDS011;673;48.098;14.422;2024-03-06T07:50:04;1999.90;;;999.90;;
1358;SDS011;673;48.098;14.422;2024-03-06T07:52:32;1999.90;;;999.90;;
1358;SDS011;673;48.098;14.422;2024-03-06T07:54:59;1999.90;;;999.90;;
1358;SDS011;673;48.098;14.422;2024-03-06T07:57:28;1999.90;;;999.90;;
1358;SDS011;673;48.098;14.422;2024-03-06T07:59:55;1999.90;;;999.90;;
1358;SDS011;673;48.098;14.422;2024-03-06T08:02:22;1999.90;;;999.90;;
1358;SDS011;673;48.098;14.422;2024-03-06T08:04:49;1999.90;;;999.90;;
1358;SDS011;673;48.098;14.422;2024-03-06T08:07:18;1999.90;;;999.90;;
1358;SDS011;673;48.098;14.422;2024-03-06T08:09:45;1999.90;;;999.90;;
1358;SDS011;673;48.098;14.422;2024-03-06T08:12:12;1999.90;;;999.90;;
1358;SDS011;673;48.098;14.422;2024-03-06T08:14:38;1999.90;;;999.90;;
1358;SDS011;673;48.098;14.422;2024-03-06T08:17:05;1999.90;;;999.90;;
1358;SDS011;673;48.098;14.422;2024-03-06T08:19:32;1999.90;;;999.90;;
1358;SDS011;673;48.098;14.422;2024-03-06T08:22:00;1999.90;;;999.90;;
1358;SDS011;673;48.098;14.422;2024-03-06T08:24:29;121.70;;;79.57;;
1358;SDS011;673;48.098;14.422;2024-03-06T08:26:55;119.27;;;65.93;;
1358;SDS011;673;48.098;14.422;2024-03-06T08:29:23;120.00;;;78.73;;
1358;SDS011;673;48.098;14.422;2024-03-06T08:31:50;142.17;;;126.97;;
1358;SDS011;673;48.098;14.422;2024-03-06T08:34:17;124.97;;;102.27;;
1358;SDS011;673;48.098;14.422;2024-03-06T08:36:44;131.77;;;117.60;;
1358;SDS011;673;48.098;14.422;2024-03-06T08:39:11;123.73;;;92.40;;
1358;SDS011;673;48.098;14.422;2024-03-06T08:41:42;123.97;;;82.57;;
1358;SDS011;673;48.098;14.422;2024-03-06T08:44:09;126.03;;;68.83;;
1358;SDS011;673;48.098;14.422;2024-03-06T08:46:36;120.97;;;75.90;;
1358;SDS011;673;48.098;14.422;2024-03-06T08:49:03;129.70;;;79.93;;
1358;SDS011;673;48.098;14.422;2024-03-06T08:51:30;121.23;;;80.77;;
1358;SDS011;673;48.098;14.422;2024-03-06T08:53:57;126.83;;;113.07;;
1358;SDS011;673;48.098;14.422;2024-03-06T08:56:24;157.00;;;142.03;;
1358;SDS011;673;48.098;14.422;2024-03-06T08:58:53;124.97;;;107.83;;
1358;SDS011;673;48.098;14.422;2024-03-06T09:01:20;108.33;;;74.17;;
1358;SDS011;673;48.098;14.422;2024-03-06T09:03:47;174.87;;;159.70;;
1358;SDS011;673;48.098;14.422;2024-03-06T09:06:14;117.07;;;74.37;;
1358;SDS011;673;48.098;14.422;2024-03-06T09:08:42;114.10;;;80.03;;
1358;SDS011;673;48.098;14.422;2024-03-06T09:11:09;121.37;;;99.27;;
1358;SDS011;673;48.098;14.422;2024-03-06T09:13:36;127.30;;;95.13;;
1358;SDS011;673;48.098;14.422;2024-03-06T09:16:05;111.10;;;56.47;;
1358;SDS011;673;48.098;14.422;2024-03-06T09:18:32;114.60;;;68.80;;
1358;SDS011;673;48.098;14.422;2024-03-06T09:20:59;105.93;;;56.67;;
1358;SDS011;673;48.098;14.422;2024-03-06T09:23:27;116.20;;;89.67;;
1358;SDS011;673;48.098;14.422;2024-03-06T09:25:55;130.50;;;100.53;;
1358;SDS011;673;48.098;14.422;2024-03-06T09:28:22;114.10;;;75.90;;
1358;SDS011;673;48.098;14.422;2024-03-06T09:30:49;121.17;;;88.10;;
1358;SDS011;673;48.098;14.422;2024-03-06T09:33:17;127.47;;;93.63;;
1358;SDS011;673;48.098;14.422;2024-03-06T09:35:44;170.93;;;155.07;;
1358;SDS011;673;48.098;14.422;2024-03-06T09:38:11;235.17;;;217.10;;
1358;SDS011;673;48.098;14.422;2024-03-06T09:40:38;113.30;;;89.17;;
1358;SDS011;673;48.098;14.422;2024-03-06T09:43:06;132.23;;;118.30;;
1358;SDS011;673;48.098;14.422;2024-03-06T09:45:34;168.03;;;153.00;;
1358;SDS011;673;48.098;14.422;2024-03-06T09:48:02;180.60;;;164.73;;
1358;SDS011;673;48.098;14.422;2024-03-06T09:50:33;207.23;;;190.60;;
1358;SDS011;673;48.098;14.422;2024-03-06T09:53:06;162.90;;;148.87;;
1358;SDS011;673;48.098;14.422;2024-03-06T09:55:37;140.67;;;127.00;;
1358;SDS011;673;48.098;14.422;2024-03-06T09:58:05;172.90;;;157.80;;
1358;SDS011;673;48.098;14.422;2024-03-06T10:00:33;242.67;;;226.03;;
1358;SDS011;673;48.098;14.422;2024-03-06T10:03:00;297.37;;;279.53;;
1358;SDS011;673;48.098;14.422;2024-03-06T10:05:30;317.23;;;297.73;;
1358;SDS011;673;48.098;14.422;2024-03-06T10:08:00;316.03;;;296.53;;
1358;SDS011;673;48.098;14.422;2024-03-06T10:10:29;276.80;;;259.70;;
1358;SDS011;673;48.098;14.422;2024-03-06T10:12:56;355.93;;;335.53;;
1358;SDS011;673;48.098;14.422;2024-03-06T10:15:25;352.40;;;333.20;;
1358;SDS011;673;48.098;14.422;2024-03-06T10:18:00;384.83;;;364.97;;
1358;SDS011;673;48.098;14.422;2024-03-06T10:20:39;384.27;;;363.57;;
1358;SDS011;673;48.098;14.422;2024-03-06T10:23:08;328.37;;;309.63;;
1358;SDS011;673;48.098;14.422;2024-03-06T10:25:36;350.33;;;330.80;;
1358;SDS011;673;48.098;14.422;2024-03-06T10:28:03;340.80;;;321.90;;
1358;SDS011;673;48.098;14.422;2024-03-06T10:30:32;314.37;;;296.27;;
1358;SDS011;673;48.098;14.422;2024-03-06T10:33:01;219.53;;;203.50;;
1358;SDS011;673;48.098;14.422;2024-03-06T10:35:29;249.87;;;233.37;;
1358;SDS011;673;48.098;14.422;2024-03-06T10:37:57;226.13;;;209.23;;
1358;SDS011;673;48.098;14.422;2024-03-06T10:40:27;312.93;;;294.93;;
1358;SDS011;673;48.098;14.422;2024-03-06T10:42:57;354.07;;;334.27;;
1358;SDS011;673;48.098;14.422;2024-03-06T10:45:27;263.07;;;246.60;;
1358;SDS011;673;48.098;14.422;2024-03-06T10:48:06;287.83;;;270.63;;
1358;SDS011;673;48.098;14.422;2024-03-06T10:50:36;267.53;;;250.77;;
1358;SDS011;673;48.098;14.422;2024-03-06T10:53:06;236.67;;;220.03;;
1358;SDS011;673;48.098;14.422;2024-03-06T10:55:35;245.03;;;228.30;;
1358;SDS011;673;48.098;14.422;2024-03-06T10:58:03;244.20;;;227.87;;
1358;SDS011;673;48.098;14.422;2024-03-06T11:00:33;245.87;;;229.30;;
1358;SDS011;673;48.098;14.422;2024-03-06T11:03:02;405.63;;;384.43;;
1358;SDS011;673;48.098;14.422;2024-03-06T11:05:33;267.37;;;250.60;;
1358;SDS011;673;48.098;14.422;2024-03-06T11:08:01;252.33;;;235.47;;
1358;SDS011;673;48.098;14.422;2024-03-06T11:10:33;304.70;;;286.97;;
1358;SDS011;673;48.098;14.422;2024-03-06T11:13:01;299.63;;;281.93;;
1358;SDS011;673;48.098;14.422;2024-03-06T11:15:29;240.57;;;224.73;;
1358;SDS011;673;48.098;14.422;2024-03-06T11:17:57;239.03;;;223.30;;
1358;SDS011;673;48.098;14.422;2024-03-06T11:20:24;239.97;;;224.17;;
1358;SDS011;673;48.098;14.422;2024-03-06T11:25:58;259.30;;;243.13;;
1358;SDS011;673;48.098;14.422;2024-03-06T11:28:28;294.50;;;276.90;;
1358;SDS011;673;48.098;14.422;2024-03-06T11:30:56;216.37;;;201.07;;
1358;SDS011;673;48.098;14.422;2024-03-06T11:33:28;237.67;;;221.53;;
1358;SDS011;673;48.098;14.422;2024-03-06T11:36:19;200.93;;;185.60;;
1358;SDS011;673;48.098;14.422;2024-03-06T11:38:50;231.67;;;216.10;;
1358;SDS011;673;48.098;14.422;2024-03-06T11:41:20;193.90;;;179.37;;
1358;SDS011;673;48.098;14.422;2024-03-06T11:43:50;229.37;;;213.73;;
1358;SDS011;673;48.098;14.422;2024-03-06T11:46:18;179.47;;;165.17;;
1358;SDS011;673;48.098;14.422;2024-03-06T11:48:52;159.40;;;145.70;;
1358;SDS011;673;48.098;14.422;2024-03-06T11:51:20;211.20;;;194.50;;
1358;SDS011;673;48.098;14.422;2024-03-06T11:53:50;216.23;;;200.63;;
1358;SDS011;673;48.098;14.422;2024-03-06T11:56:18;219.23;;;202.93;;
1358;SDS011;673;48.098;14.422;2024-03-06T11:58:47;145.50;;;131.93;;
1358;SDS011;673;48.098;14.422;2024-03-06T12:01:14;145.77;;;132.27;;
1358;SDS011;673;48.098;14.422;2024-03-06T12:03:41;167.33;;;152.63;;
1358;SDS011;673;48.098;14.422;2024-03-06T12:06:09;173.80;;;159.33;;
1358;SDS011;673;48.098;14.422;2024-03-06T12:08:38;208.90;;;193.57;;
1358;SDS011;673;48.098;14.422;2024-03-06T12:11:05;202.53;;;187.23;;
1358;SDS011;673;48.098;14.422;2024-03-06T12:13:34;258.67;;;241.53;;
1358;SDS011;673;48.098;14.422;2024-03-06T12:16:04;207.80;;;192.50;;
1358;SDS011;673;48.098;14.422;2024-03-06T12:18:32;223.40;;;207.43;;
1358;SDS011;673;48.098;14.422;2024-03-06T12:21:00;185.93;;;171.03;;
1358;SDS011;673;48.098;14.422;2024-03-06T12:23:29;200.77;;;185.67;;
1358;SDS011;673;48.098;14.422;2024-03-06T12:26:05;255.67;;;238.70;;
1358;SDS011;673;48.098;14.422;2024-03-06T12:28:35;181.67;;;167.43;;
1358;SDS011;673;48.098;14.422;2024-03-06T12:31:03;246.30;;;230.40;;
1358;SDS011;673;48.098;14.422;2024-03-06T12:33:31;222.17;;;206.67;;
1358;SDS011;673;48.098;14.422;2024-03-06T12:36:00;271.67;;;253.90;;
1358;SDS011;673;48.098;14.422;2024-03-06T12:38:31;120.57;;;107.60;;
1358;SDS011;673;48.098;14.422;2024-03-06T12:40:59;122.60;;;109.47;;
1358;SDS011;673;48.098;14.422;2024-03-06T12:43:26;120.63;;;108.00;;
1358;SDS011;673;48.098;14.422;2024-03-06T12:45:56;115.20;;;99.40;;
1358;SDS011;673;48.098;14.422;2024-03-06T12:48:23;241.00;;;224.43;;
1358;SDS011;673;48.098;14.422;2024-03-06T12:50:51;222.93;;;206.77;;
1358;SDS011;673;48.098;14.422;2024-03-06T12:53:19;157.50;;;142.90;;
1358;SDS011;673;48.098;14.422;2024-03-06T12:55:46;113.33;;;88.67;;
1358;SDS011;673;48.098;14.422;2024-03-06T12:58:13;232.20;;;216.00;;
1358;SDS011;673;48.098;14.422;2024-03-06T13:00:41;123.50;;;109.87;;
1358;SDS011;673;48.098;14.422;2024-03-06T13:03:08;165.73;;;151.00;;
1358;SDS011;673;48.098;14.422;2024-03-06T13:05:35;248.97;;;232.27;;
1358;SDS011;673;48.098;14.422;2024-03-06T13:08:03;221.53;;;205.37;;
1358;SDS011;673;48.098;14.422;2024-03-06T13:10:31;130.83;;;117.20;;
1358;SDS011;673;48.098;14.422;2024-03-06T13:12:58;187.37;;;172.90;;
1358;SDS011;673;48.098;14.422;2024-03-06T13:15:25;332.17;;;312.87;;
1358;SDS011;673;48.098;14.422;2024-03-06T13:17:52;111.87;;;92.80;;
1358;SDS011;673;48.098;14.422;2024-03-06T13:20:20;191.73;;;176.37;;
1358;SDS011;673;48.098;14.422;2024-03-06T13:22:47;108.27;;;70.30;;
1358;SDS011;673;48.098;14.422;2024-03-06T13:25:14;249.07;;;232.33;;
1358;SDS011;673;48.098;14.422;2024-03-06T13:27:41;231.83;;;215.63;;
1358;SDS011;673;48.098;14.422;2024-03-06T13:30:08;198.27;;;182.57;;
1358;SDS011;673;48.098;14.422;2024-03-06T13:32:37;213.30;;;197.30;;
1358;SDS011;673;48.098;14.422;2024-03-06T13:35:04;164.87;;;149.57;;
1358;SDS011;673;48.098;14.422;2024-03-06T13:37:37;145.73;;;131.43;;
1358;SDS011;673;48.098;14.422;2024-03-06T13:40:05;134.27;;;121.23;;
1358;SDS011;673;48.098;14.422;2024-03-06T13:42:33;148.13;;;133.93;;
1358;SDS011;673;48.098;14.422;2024-03-06T13:45:00;127.33;;;113.80;;
1358;SDS011;673;48.098;14.422;2024-03-06T13:47:27;157.50;;;143.33;;
1358;SDS011;673;48.098;14.422;2024-03-06T13:49:54;130.87;;;117.40;;
1358;SDS011;673;48.098;14.422;2024-03-06T13:52:22;162.07;;;147.90;;
1358;SDS011;673;48.098;14.422;2024-03-06T13:54:51;173.00;;;158.63;;
1358;SDS011;673;48.098;14.422;2024-03-06T13:57:18;150.20;;;136.27;;
1358;SDS011;673;48.098;14.422;2024-03-06T13:59:45;295.07;;;277.07;;
1358;SDS011;673;48.098;14.422;2024-03-06T14:02:12;225.80;;;210.10;;
1358;SDS011;673;48.098;14.422;2024-03-06T14:04:39;234.00;;;217.57;;
1358;SDS011;673;48.098;14.422;2024-03-06T14:07:06;265.27;;;248.37;;
1358;SDS011;673;48.098;14.422;2024-03-06T14:09:33;321.73;;;302.87;;
1358;SDS011;673;48.098;14.422;2024-03-06T14:12:02;274.77;;;257.37;;
1358;SDS011;673;48.098;14.422;2024-03-06T14:14:29;307.90;;;289.43;;
1358;SDS011;673;48.098;14.422;2024-03-06T14:16:56;119.70;;;100.63;;
1358;SDS011;673;48.098;14.422;2024-03-06T14:19:23;221.33;;;205.40;;
1358;SDS011;673;48.098;14.422;2024-03-06T14:21:50;219.27;;;203.37;;
1358;SDS011;673;48.098;14.422;2024-03-06T14:24:17;184.10;;;168.97;;